Minton, Canada
Current Conditions -  °F | °C
As of 2:55 AM on Wednesday 26 Nov 2014 (Local Time) from KD50 Reporting Station
Light Snow Light Snow  
Wind Chill: -5°   Ceiling: 1100
Heat Index:   Visibility: 4mi
Dew Point:   Wind: 9mph
Humidity: 92%   Direction: 320°NW
Pressure: 30.26"   Gusts: NA
Location:  49.17°N, 104.58°W
Report Text: KD50 260855Z AUTO 32008KT 4SM -SN BKN011 OVC017 M13/M14 A3026 RMK AO2 P0040
Loading
Personal Weather Stations






























Interactive Weather Map New forecast layout! Learn more

10-Day Weather Forecast

Advertisements
Track Severe Weather on mobile